sensor_id;sensor_type;location;lat;lon;timestamp;temperature;humidity
4314;DHT22;2170;48.794;9.182;2024-02-26T00:02:37;7.70;99.90
4314;DHT22;2170;48.794;9.182;2024-02-26T00:05:31;8.00;99.90
4314;DHT22;2170;48.794;9.182;2024-02-26T00:08:09;8.00;99.90
4314;DHT22;2170;48.794;9.182;2024-02-26T00:10:49;8.00;99.90
4314;DHT22;2170;48.794;9.182;2024-02-26T00:13:35;7.70;99.90
4314;DHT22;2170;48.794;9.182;2024-02-26T00:16:16;8.00;99.90
4314;DHT22;2170;48.794;9.182;2024-02-26T00:19:05;8.10;99.90
4314;DHT22;2170;48.794;9.182;2024-02-26T00:22:03;7.80;99.90
4314;DHT22;2170;48.794;9.182;2024-02-26T00:27:56;8.20;99.90
4314;DHT22;2170;48.794;9.182;2024-02-26T00:47:57;7.80;99.90
4314;DHT22;2170;48.794;9.182;2024-02-26T00:51:05;7.90;99.90
4314;DHT22;2170;48.794;9.182;2024-02-26T00:53:41;8.20;99.90
4314;DHT22;2170;48.794;9.182;2024-02-26T00:56:38;8.20;99.90
4314;DHT22;2170;48.794;9.182;2024-02-26T00:59:48;8.20;99.90
4314;DHT22;2170;48.794;9.182;2024-02-26T01:13:10;8.30;99.90
4314;DHT22;2170;48.794;9.182;2024-02-26T01:19:44;8.20;99.90
4314;DHT22;2170;48.794;9.182;2024-02-26T01:29:33;8.20;99.90
4314;DHT22;2170;48.794;9.182;2024-02-26T01:36:33;8.20;99.90
4314;DHT22;2170;48.794;9.182;2024-02-26T01:56:27;8.30;99.90
4314;DHT22;2170;48.794;9.182;2024-02-26T01:59:42;8.30;99.90
4314;DHT22;2170;48.794;9.182;2024-02-26T02:08:58;8.20;99.90
4314;DHT22;2170;48.794;9.182;2024-02-26T05:32:53;7.90;99.90
4314;DHT22;2170;48.794;9.182;2024-02-26T05:47:05;7.90;99.90
4314;DHT22;2170;48.794;9.182;2024-02-26T05:52:43;8.00;99.90
4314;DHT22;2170;48.794;9.182;2024-02-26T05:56:17;8.00;99.90
4314;DHT22;2170;48.794;9.182;2024-02-26T05:59:43;7.60;99.90
4314;DHT22;2170;48.794;9.182;2024-02-26T06:39:23;7.90;99.90
4314;DHT22;2170;48.794;9.182;2024-02-26T07:17:53;8.10;99.90
4314;DHT22;2170;48.794;9.182;2024-02-26T07:24:24;8.20;99.90
4314;DHT22;2170;48.794;9.182;2024-02-26T07:44:13;8.20;99.90
4314;DHT22;2170;48.794;9.182;2024-02-26T07:53:26;8.30;99.90
4314;DHT22;2170;48.794;9.182;2024-02-26T07:56:33;8.30;99.90
4314;DHT22;2170;48.794;9.182;2024-02-26T07:59:44;8.00;99.90
4314;DHT22;2170;48.794;9.182;2024-02-26T08:02:50;8.40;99.90
4314;DHT22;2170;48.794;9.182;2024-02-26T08:20:09;8.20;99.90
4314;DHT22;2170;48.794;9.182;2024-02-26T08:30:30;8.20;99.90
4314;DHT22;2170;48.794;9.182;2024-02-26T08:43:00;8.80;99.90
4314;DHT22;2170;48.794;9.182;2024-02-26T08:46:03;8.90;99.90
4314;DHT22;2170;48.794;9.182;2024-02-26T08:54:22;8.90;99.90
4314;DHT22;2170;48.794;9.182;2024-02-26T08:59:50;9.10;99.90
4314;DHT22;2170;48.794;9.182;2024-02-26T09:02:52;9.20;99.90
4314;DHT22;2170;48.794;9.182;2024-02-26T09:05:59;9.10;99.90
4314;DHT22;2170;48.794;9.182;2024-02-26T09:12:02;9.10;99.90
4314;DHT22;2170;48.794;9.182;2024-02-26T09:14:45;8.80;99.90
4314;DHT22;2170;48.794;9.182;2024-02-26T09:19:12;9.20;99.90
4314;DHT22;2170;48.794;9.182;2024-02-26T09:24:27;9.50;99.90
4314;DHT22;2170;48.794;9.182;2024-02-26T09:38:56;9.50;99.90
4314;DHT22;2170;48.794;9.182;2024-02-26T09:41:54;9.30;99.90
4314;DHT22;2170;48.794;9.182;2024-02-26T09:45:17;9.60;99.90
4314;DHT22;2170;48.794;9.182;2024-02-26T09:48:49;9.70;99.90
4314;DHT22;2170;48.794;9.182;2024-02-26T09:57:06;9.70;99.90
4314;DHT22;2170;48.794;9.182;2024-02-26T10:00:05;9.60;99.90
4314;DHT22;2170;48.794;9.182;2024-02-26T10:09:57;10.50;99.90
4314;DHT22;2170;48.794;9.182;2024-02-26T10:17:54;10.50;99.90
4314;DHT22;2170;48.794;9.182;2024-02-26T10:29:42;11.90;99.90
4314;DHT22;2170;48.794;9.182;2024-02-26T10:36:34;11.80;99.90
4314;DHT22;2170;48.794;9.182;2024-02-26T11:11:04;13.20;99.90
4314;DHT22;2170;48.794;9.182;2024-02-26T11:13:48;12.80;99.90
4314;DHT22;2170;48.794;9.182;2024-02-26T11:17:55;13.10;99.90
4314;DHT22;2170;48.794;9.182;2024-02-26T11:40:39;14.30;99.90
4314;DHT22;2170;48.794;9.182;2024-02-26T11:44:04;14.20;99.90
4314;DHT22;2170;48.794;9.182;2024-02-26T11:46:57;13.80;99.90
4314;DHT22;2170;48.794;9.182;2024-02-26T11:49:56;13.60;99.90
4314;DHT22;2170;48.794;9.182;2024-02-26T11:52:43;13.70;99.90
4314;DHT22;2170;48.794;9.182;2024-02-26T11:59:04;14.00;99.90
4314;DHT22;2170;48.794;9.182;2024-02-26T12:01:59;13.60;99.90
4314;DHT22;2170;48.794;9.182;2024-02-26T12:05:09;14.30;99.90
4314;DHT22;2170;48.794;9.182;2024-02-26T12:07:54;14.50;99.90
4314;DHT22;2170;48.794;9.182;2024-02-26T12:10:50;14.60;99.90
4314;DHT22;2170;48.794;9.182;2024-02-26T12:13:45;14.50;99.90
4314;DHT22;2170;48.794;9.182;2024-02-26T12:20:56;14.40;99.90
4314;DHT22;2170;48.794;9.182;2024-02-26T12:23:44;14.40;99.90
4314;DHT22;2170;48.794;9.182;2024-02-26T12:27:00;14.40;99.90
4314;DHT22;2170;48.794;9.182;2024-02-26T12:30:36;14.40;99.90
4314;DHT22;2170;48.794;9.182;2024-02-26T12:37:07;14.10;99.90
4314;DHT22;2170;48.794;9.182;2024-02-26T12:40:07;14.10;99.90
4314;DHT22;2170;48.794;9.182;2024-02-26T12:46:23;14.40;99.90
4314;DHT22;2170;48.794;9.182;2024-02-26T12:49:26;14.10;99.90
4314;DHT22;2170;48.794;9.182;2024-02-26T12:52:41;14.60;99.90
4314;DHT22;2170;48.794;9.182;2024-02-26T12:55:23;14.40;99.90
4314;DHT22;2170;48.794;9.182;2024-02-26T12:58:07;14.40;99.90
4314;DHT22;2170;48.794;9.182;2024-02-26T13:00:51;14.10;99.90
4314;DHT22;2170;48.794;9.182;2024-02-26T13:03:43;14.20;99.90
4314;DHT22;2170;48.794;9.182;2024-02-26T13:06:29;14.10;99.90
4314;DHT22;2170;48.794;9.182;2024-02-26T13:09:40;14.40;99.90
4314;DHT22;2170;48.794;9.182;2024-02-26T13:12:24;14.60;99.90
4314;DHT22;2170;48.794;9.182;2024-02-26T13:15:03;14.70;99.90
4314;DHT22;2170;48.794;9.182;2024-02-26T13:17:42;15.00;99.90
4314;DHT22;2170;48.794;9.182;2024-02-26T13:20:36;14.90;99.90
4314;DHT22;2170;48.794;9.182;2024-02-26T13:23:15;15.20;99.90
4314;DHT22;2170;48.794;9.182;2024-02-26T13:26:00;15.30;99.90
4314;DHT22;2170;48.794;9.182;2024-02-26T13:28:33;15.30;99.90
4314;DHT22;2170;48.794;9.182;2024-02-26T13:31:27;15.40;99.90
4314;DHT22;2170;48.794;9.182;2024-02-26T13:34:06;15.30;99.90
4314;DHT22;2170;48.794;9.182;2024-02-26T13:37:05;15.10;99.90
4314;DHT22;2170;48.794;9.182;2024-02-26T13:40:00;14.70;99.90
4314;DHT22;2170;48.794;9.182;2024-02-26T13:42:41;15.00;99.90
4314;DHT22;2170;48.794;9.182;2024-02-26T13:45:28;15.00;99.90
4314;DHT22;2170;48.794;9.182;2024-02-26T13:48:09;15.30;99.90
4314;DHT22;2170;48.794;9.182;2024-02-26T13:51:03;15.00;99.90
4314;DHT22;2170;48.794;9.182;2024-02-26T13:53:48;15.10;99.90
4314;DHT22;2170;48.794;9.182;2024-02-26T13:56:34;15.20;99.90
4314;DHT22;2170;48.794;9.182;2024-02-26T13:59:19;14.90;99.90
4314;DHT22;2170;48.794;9.182;2024-02-26T14:02:48;15.00;99.90
4314;DHT22;2170;48.794;9.182;2024-02-26T14:08:04;15.10;99.90
4314;DHT22;2170;48.794;9.182;2024-02-26T14:10:50;15.10;99.90
4314;DHT22;2170;48.794;9.182;2024-02-26T14:13:59;15.30;99.90
4314;DHT22;2170;48.794;9.182;2024-02-26T14:16:40;15.30;99.90
4314;DHT22;2170;48.794;9.182;2024-02-26T14:19:10;15.00;99.90
4314;DHT22;2170;48.794;9.182;2024-02-26T14:21:52;14.90;99.90
4314;DHT22;2170;48.794;9.182;2024-02-26T14:24:44;15.20;99.90
4314;DHT22;2170;48.794;9.182;2024-02-26T14:27:16;15.50;99.90
4314;DHT22;2170;48.794;9.182;2024-02-26T14:33:01;16.00;99.90
4314;DHT22;2170;48.794;9.182;2024-02-26T14:35:33;16.20;99.90
4314;DHT22;2170;48.794;9.182;2024-02-26T14:38:14;16.10;99.90
4314;DHT22;2170;48.794;9.182;2024-02-26T14:41:07;16.20;99.90
4314;DHT22;2170;48.794;9.182;2024-02-26T14:44:09;15.80;99.90
4314;DHT22;2170;48.794;9.182;2024-02-26T14:47:28;15.60;99.90
4314;DHT22;2170;48.794;9.182;2024-02-26T14:50:18;15.60;99.90
4314;DHT22;2170;48.794;9.182;2024-02-26T14:53:06;15.70;99.90
4314;DHT22;2170;48.794;9.182;2024-02-26T14:55:44;15.60;99.90
4314;DHT22;2170;48.794;9.182;2024-02-26T14:58:49;15.70;99.90
4314;DHT22;2170;48.794;9.182;2024-02-26T15:02:33;15.40;99.90
4314;DHT22;2170;48.794;9.182;2024-02-26T15:04:59;15.70;99.90
4314;DHT22;2170;48.794;9.182;2024-02-26T15:08:04;15.60;99.90
4314;DHT22;2170;48.794;9.182;2024-02-26T15:10:55;15.50;99.90
4314;DHT22;2170;48.794;9.182;2024-02-26T15:13:43;15.20;99.90
4314;DHT22;2170;48.794;9.182;2024-02-26T15:19:49;15.60;99.90
4314;DHT22;2170;48.794;9.182;2024-02-26T15:22:37;15.60;99.90
4314;DHT22;2170;48.794;9.182;2024-02-26T15:28:34;15.40;99.90
4314;DHT22;2170;48.794;9.182;2024-02-26T15:31:29;15.30;99.90
4314;DHT22;2170;48.794;9.182;2024-02-26T15:34:12;15.50;99.90
4314;DHT22;2170;48.794;9.182;2024-02-26T15:42:48;15.10;99.90
4314;DHT22;2170;48.794;9.182;2024-02-26T15:45:38;14.90;99.90
4314;DHT22;2170;48.794;9.182;2024-02-26T15:48:17;14.60;99.90
4314;DHT22;2170;48.794;9.182;2024-02-26T15:50:49;14.80;99.90
4314;DHT22;2170;48.794;9.182;2024-02-26T15:53:36;14.80;99.90
4314;DHT22;2170;48.794;9.182;2024-02-26T15:56:21;14.60;99.90
4314;DHT22;2170;48.794;9.182;2024-02-26T15:59:12;14.60;99.90
4314;DHT22;2170;48.794;9.182;2024-02-26T16:01:55;14.60;99.90
4314;DHT22;2170;48.794;9.182;2024-02-26T16:04:41;14.50;99.90
4314;DHT22;2170;48.794;9.182;2024-02-26T16:07:37;14.60;99.90
4314;DHT22;2170;48.794;9.182;2024-02-26T16:10:13;14.10;99.90
4314;DHT22;2170;48.794;9.182;2024-02-26T16:12:45;14.40;99.90
4314;DHT22;2170;48.794;9.182;2024-02-26T16:15:47;14.40;99.90
4314;DHT22;2170;48.794;9.182;2024-02-26T16:18:38;14.30;99.90
4314;DHT22;2170;48.794;9.182;2024-02-26T16:21:22;14.20;99.90
4314;DHT22;2170;48.794;9.182;2024-02-26T16:23:55;14.40;99.90
4314;DHT22;2170;48.794;9.182;2024-02-26T16:26:52;14.00;99.90
4314;DHT22;2170;48.794;9.182;2024-02-26T16:29:26;14.00;99.90
4314;DHT22;2170;48.794;9.182;2024-02-26T16:32:04;14.00;99.90
4314;DHT22;2170;48.794;9.182;2024-02-26T16:35:31;13.80;99.90
4314;DHT22;2170;48.794;9.182;2024-02-26T16:37:46;13.90;99.90
4314;DHT22;2170;48.794;9.182;2024-02-26T16:40:24;13.80;99.90
4314;DHT22;2170;48.794;9.182;2024-02-26T16:43:12;13.60;99.90
4314;DHT22;2170;48.794;9.182;2024-02-26T16:45:46;13.50;99.90
4314;DHT22;2170;48.794;9.182;2024-02-26T16:48:46;13.40;99.90
4314;DHT22;2170;48.794;9.182;2024-02-26T16:51:22;13.30;99.90
4314;DHT22;2170;48.794;9.182;2024-02-26T16:56:58;13.30;99.90
4314;DHT22;2170;48.794;9.182;2024-02-26T16:59:42;13.50;99.90
4314;DHT22;2170;48.794;9.182;2024-02-26T17:02:33;13.20;99.90
4314;DHT22;2170;48.794;9.182;2024-02-26T17:05:34;13.20;99.90
4314;DHT22;2170;48.794;9.182;2024-02-26T17:08:23;13.30;99.90
4314;DHT22;2170;48.794;9.182;2024-02-26T17:11:11;13.10;99.90
4314;DHT22;2170;48.794;9.182;2024-02-26T17:13:48;13.00;99.90
4314;DHT22;2170;48.794;9.182;2024-02-26T17:16:41;13.00;99.90
4314;DHT22;2170;48.794;9.182;2024-02-26T17:19:49;13.20;99.90
4314;DHT22;2170;48.794;9.182;2024-02-26T17:22:32;12.90;99.90
4314;DHT22;2170;48.794;9.182;2024-02-26T17:25:14;13.10;99.90
4314;DHT22;2170;48.794;9.182;2024-02-26T17:28:05;12.80;99.90
4314;DHT22;2170;48.794;9.182;2024-02-26T17:30:49;12.80;99.90
4314;DHT22;2170;48.794;9.182;2024-02-26T17:33:38;12.50;99.90
4314;DHT22;2170;48.794;9.182;2024-02-26T17:36:21;12.70;99.90
4314;DHT22;2170;48.794;9.182;2024-02-26T17:41:56;12.60;99.90
4314;DHT22;2170;48.794;9.182;2024-02-26T17:44:36;12.30;99.90
4314;DHT22;2170;48.794;9.182;2024-02-26T17:47:31;12.80;99.90
4314;DHT22;2170;48.794;9.182;2024-02-26T17:50:03;12.40;99.90
4314;DHT22;2170;48.794;9.182;2024-02-26T17:52:37;12.30;99.90
4314;DHT22;2170;48.794;9.182;2024-02-26T17:55:46;12.40;99.90
4314;DHT22;2170;48.794;9.182;2024-02-26T17:58:35;12.30;99.90
4314;DHT22;2170;48.794;9.182;2024-02-26T18:01:36;12.30;99.90
4314;DHT22;2170;48.794;9.182;2024-02-26T18:04:07;12.20;99.90
4314;DHT22;2170;48.794;9.182;2024-02-26T18:06:47;12.10;99.90
4314;DHT22;2170;48.794;9.182;2024-02-26T18:09:21;12.20;99.90
4314;DHT22;2170;48.794;9.182;2024-02-26T18:12:08;12.00;99.90
4314;DHT22;2170;48.794;9.182;2024-02-26T18:14:42;12.00;99.90
4314;DHT22;2170;48.794;9.182;2024-02-26T18:17:22;11.80;99.90
4314;DHT22;2170;48.794;9.182;2024-02-26T18:19:58;11.80;99.90
4314;DHT22;2170;48.794;9.182;2024-02-26T18:22:45;12.00;99.90
4314;DHT22;2170;48.794;9.182;2024-02-26T18:25:21;12.00;99.90
4314;DHT22;2170;48.794;9.182;2024-02-26T18:27:52;12.20;99.90
4314;DHT22;2170;48.794;9.182;2024-02-26T18:30:25;12.00;99.90
4314;DHT22;2170;48.794;9.182;2024-02-26T18:33:03;12.00;99.90
4314;DHT22;2170;48.794;9.182;2024-02-26T18:35:43;11.90;99.90
4314;DHT22;2170;48.794;9.182;2024-02-26T18:38:24;11.90;99.90
4314;DHT22;2170;48.794;9.182;2024-02-26T18:41:07;11.90;99.90
4314;DHT22;2170;48.794;9.182;2024-02-26T18:43:42;11.80;99.90
4314;DHT22;2170;48.794;9.182;2024-02-26T18:46:29;11.50;99.90
4314;DHT22;2170;48.794;9.182;2024-02-26T18:49:05;11.70;99.90
4314;DHT22;2170;48.794;9.182;2024-02-26T18:52:01;11.60;99.90
4314;DHT22;2170;48.794;9.182;2024-02-26T18:54:36;11.60;99.90
4314;DHT22;2170;48.794;9.182;2024-02-26T18:57:19;11.60;99.90
4314;DHT22;2170;48.794;9.182;2024-02-26T19:00:19;11.60;99.90
4314;DHT22;2170;48.794;9.182;2024-02-26T19:03:13;11.50;99.90
4314;DHT22;2170;48.794;9.182;2024-02-26T19:05:55;11.40;99.90
4314;DHT22;2170;48.794;9.182;2024-02-26T19:08:42;11.30;99.90
4314;DHT22;2170;48.794;9.182;2024-02-26T19:11:31;11.30;99.90
4314;DHT22;2170;48.794;9.182;2024-02-26T19:14:10;11.30;99.90
4314;DHT22;2170;48.794;9.182;2024-02-26T19:18:45;11.30;99.90
4314;DHT22;2170;48.794;9.182;2024-02-26T19:19:44;11.20;99.90
4314;DHT22;2170;48.794;9.182;2024-02-26T19:22:30;11.20;99.90
4314;DHT22;2170;48.794;9.182;2024-02-26T19:25:22;11.20;99.90
4314;DHT22;2170;48.794;9.182;2024-02-26T19:31:14;11.30;99.90
4314;DHT22;2170;48.794;9.182;2024-02-26T19:34:03;11.20;99.90
4314;DHT22;2170;48.794;9.182;2024-02-26T19:37:01;11.20;99.90
4314;DHT22;2170;48.794;9.182;2024-02-26T19:39:52;11.20;99.90
4314;DHT22;2170;48.794;9.182;2024-02-26T19:42:30;11.20;99.90
4314;DHT22;2170;48.794;9.182;2024-02-26T19:45:17;11.20;99.90
4314;DHT22;2170;48.794;9.182;2024-02-26T19:48:00;11.20;99.90
4314;DHT22;2170;48.794;9.182;2024-02-26T19:51:14;11.10;99.90
4314;DHT22;2170;48.794;9.182;2024-02-26T19:54:00;11.10;99.90
4314;DHT22;2170;48.794;9.182;2024-02-26T19:56:41;10.80;99.90
4314;DHT22;2170;48.794;9.182;2024-02-26T19:59:32;10.80;99.90
4314;DHT22;2170;48.794;9.182;2024-02-26T20:02:16;11.00;99.90
4314;DHT22;2170;48.794;9.182;2024-02-26T20:05:02;11.00;99.90
4314;DHT22;2170;48.794;9.182;2024-02-26T20:08:29;11.00;99.90
4314;DHT22;2170;48.794;9.182;2024-02-26T20:10:47;11.00;99.90
4314;DHT22;2170;48.794;9.182;2024-02-26T20:13:41;10.60;99.90
4314;DHT22;2170;48.794;9.182;2024-02-26T20:16:16;10.90;99.90
4314;DHT22;2170;48.794;9.182;2024-02-26T20:18:52;10.90;99.90
4314;DHT22;2170;48.794;9.182;2024-02-26T20:21:35;10.90;99.90
4314;DHT22;2170;48.794;9.182;2024-02-26T20:24:18;10.90;99.90
4314;DHT22;2170;48.794;9.182;2024-02-26T20:27:02;11.00;99.90
4314;DHT22;2170;48.794;9.182;2024-02-26T20:29:37;10.80;99.90
4314;DHT22;2170;48.794;9.182;2024-02-26T20:32:08;10.80;99.90
4314;DHT22;2170;48.794;9.182;2024-02-26T20:34:45;10.80;99.90
4314;DHT22;2170;48.794;9.182;2024-02-26T20:37:20;10.80;99.90
4314;DHT22;2170;48.794;9.182;2024-02-26T20:39:51;10.80;99.90
4314;DHT22;2170;48.794;9.182;2024-02-26T20:42:26;11.00;99.90
4314;DHT22;2170;48.794;9.182;2024-02-26T20:44:58;10.50;99.90
4314;DHT22;2170;48.794;9.182;2024-02-26T20:47:32;10.70;99.90
4314;DHT22;2170;48.794;9.182;2024-02-26T20:50:03;11.00;99.90
4314;DHT22;2170;48.794;9.182;2024-02-26T20:52:53;10.80;99.90
4314;DHT22;2170;48.794;9.182;2024-02-26T20:55:39;10.50;99.90
4314;DHT22;2170;48.794;9.182;2024-02-26T20:58:30;10.70;99.90
4314;DHT22;2170;48.794;9.182;2024-02-26T21:01:02;10.70;99.90
4314;DHT22;2170;48.794;9.182;2024-02-26T21:03:36;10.70;99.90
4314;DHT22;2170;48.794;9.182;2024-02-26T21:06:27;10.60;99.90
4314;DHT22;2170;48.794;9.182;2024-02-26T21:09:14;10.60;99.90
4314;DHT22;2170;48.794;9.182;2024-02-26T21:11:47;10.50;99.90
4314;DHT22;2170;48.794;9.182;2024-02-26T21:14:16;10.90;99.90
4314;DHT22;2170;48.794;9.182;2024-02-26T21:16:57;10.60;99.90
4314;DHT22;2170;48.794;9.182;2024-02-26T21:19:49;10.60;99.90
4314;DHT22;2170;48.794;9.182;2024-02-26T21:22:18;10.60;99.90
4314;DHT22;2170;48.794;9.182;2024-02-26T21:24:51;10.50;99.90
4314;DHT22;2170;48.794;9.182;2024-02-26T21:27:36;10.50;99.90
4314;DHT22;2170;48.794;9.182;2024-02-26T21:33:07;10.40;99.90
4314;DHT22;2170;48.794;9.182;2024-02-26T21:35:37;10.60;99.90
4314;DHT22;2170;48.794;9.182;2024-02-26T21:38:11;10.40;99.90
4314;DHT22;2170;48.794;9.182;2024-02-26T21:40:46;10.40;99.90
4314;DHT22;2170;48.794;9.182;2024-02-26T21:43:19;10.40;99.90
4314;DHT22;2170;48.794;9.182;2024-02-26T21:45:52;10.40;99.90
4314;DHT22;2170;48.794;9.182;2024-02-26T21:48:24;10.40;99.90
4314;DHT22;2170;48.794;9.182;2024-02-26T21:51:02;10.40;99.90
4314;DHT22;2170;48.794;9.182;2024-02-26T21:53:38;10.40;99.90
4314;DHT22;2170;48.794;9.182;2024-02-26T21:56:14;10.40;99.90
4314;DHT22;2170;48.794;9.182;2024-02-26T21:58:59;10.10;99.90
4314;DHT22;2170;48.794;9.182;2024-02-26T22:01:57;10.40;99.90
4314;DHT22;2170;48.794;9.182;2024-02-26T22:04:52;10.40;99.90
4314;DHT22;2170;48.794;9.182;2024-02-26T22:07:40;10.30;99.90
4314;DHT22;2170;48.794;9.182;2024-02-26T22:10:28;10.00;99.90
4314;DHT22;2170;48.794;9.182;2024-02-26T22:12:58;10.30;99.90
4314;DHT22;2170;48.794;9.182;2024-02-26T22:15:33;10.30;99.90
4314;DHT22;2170;48.794;9.182;2024-02-26T22:18:06;10.30;99.90
4314;DHT22;2170;48.794;9.182;2024-02-26T22:20:42;10.30;99.90
4314;DHT22;2170;48.794;9.182;2024-02-26T22:23:16;10.30;99.90
4314;DHT22;2170;48.794;9.182;2024-02-26T22:25:54;10.30;99.90
4314;DHT22;2170;48.794;9.182;2024-02-26T22:28:27;10.20;99.90
4314;DHT22;2170;48.794;9.182;2024-02-26T22:31:23;9.90;99.90
4314;DHT22;2170;48.794;9.182;2024-02-26T22:34:07;10.30;99.90
4314;DHT22;2170;48.794;9.182;2024-02-26T22:37:05;10.30;99.90
4314;DHT22;2170;48.794;9.182;2024-02-26T22:40:17;10.30;99.90
4314;DHT22;2170;48.794;9.182;2024-02-26T22:43:12;10.30;99.90
4314;DHT22;2170;48.794;9.182;2024-02-26T22:46:05;10.30;99.90
4314;DHT22;2170;48.794;9.182;2024-02-26T22:49:02;10.30;99.90
4314;DHT22;2170;48.794;9.182;2024-02-26T22:51:53;10.20;99.90
4314;DHT22;2170;48.794;9.182;2024-02-26T22:54:51;10.20;99.90
4314;DHT22;2170;48.794;9.182;2024-02-26T22:57:51;9.90;99.90
4314;DHT22;2170;48.794;9.182;2024-02-26T23:00:40;10.10;99.90
4314;DHT22;2170;48.794;9.182;2024-02-26T23:03:17;10.10;99.90
4314;DHT22;2170;48.794;9.182;2024-02-26T23:09:21;10.00;99.90
4314;DHT22;2170;48.794;9.182;2024-02-26T23:15:49;9.90;99.90
4314;DHT22;2170;48.794;9.182;2024-02-26T23:18:55;9.90;99.90
4314;DHT22;2170;48.794;9.182;2024-02-26T23:32:00;9.70;99.90
4314;DHT22;2170;48.794;9.182;2024-02-26T23:44:55;9.70;99.90
